createdAt,value
2022-10-30T00:01:55.685Z,33.65
2022-10-30T00:04:25.885Z,34.75
2022-10-30T00:06:55.423Z,34.60
2022-10-30T00:09:24.603Z,31.73
2022-10-30T00:11:54.482Z,32.78
2022-10-30T00:14:22.462Z,33.33
2022-10-30T00:16:54.165Z,32.70
2022-10-30T00:19:26.945Z,30.92
2022-10-30T00:24:33.989Z,30.83
2022-10-30T00:27:05.094Z,30.98
2022-10-30T00:29:34.351Z,32.85
2022-10-30T00:32:05.098Z,30.67
2022-10-30T00:34:35.525Z,33.53
2022-10-30T00:37:05.388Z,33.92
2022-10-30T00:39:34.009Z,33.80
2022-10-30T00:42:03.327Z,35.05
2022-10-30T00:44:39.171Z,35.00
2022-10-30T00:47:12.087Z,34.42
2022-10-30T00:49:53.492Z,33.78
2022-10-30T00:52:31.950Z,34.80
2022-10-30T00:55:03.440Z,33.33
2022-10-30T00:57:33.376Z,37.00
2022-10-30T01:00:04.286Z,33.67
2022-10-30T01:02:33.893Z,34.95
2022-10-30T01:07:43.212Z,34.55
2022-10-30T01:10:11.456Z,34.22
2022-10-30T01:12:39.902Z,36.95
2022-10-30T01:15:09.379Z,35.88
2022-10-30T01:17:59.913Z,36.45
2022-10-30T01:20:45.772Z,36.25
2022-10-30T01:23:23.592Z,34.78
2022-10-30T01:26:08.983Z,36.88
2022-10-30T01:28:48.283Z,33.33
2022-10-30T01:31:35.695Z,37.95
2022-10-30T01:34:12.701Z,35.63
2022-10-30T01:36:47.599Z,37.17
2022-10-30T01:39:25.002Z,37.15
2022-10-30T01:41:54.311Z,37.25
2022-10-30T01:44:31.909Z,38.47
2022-10-30T01:47:30.388Z,36.80
2022-10-30T01:50:10.944Z,35.67
2022-10-30T01:52:46.119Z,35.25
2022-10-30T01:55:22.587Z,34.95
2022-10-30T01:57:58.442Z,37.15
2022-10-30T02:00:33.344Z,35.90
2022-10-30T02:03:02.306Z,36.45
2022-10-30T02:05:34.789Z,35.90
2022-10-30T02:10:38.361Z,36.17
2022-10-30T02:13:12.555Z,37.25
2022-10-30T02:15:47.091Z,36.75
2022-10-30T02:18:20.164Z,37.50
2022-10-30T02:20:49.484Z,33.92
2022-10-30T02:23:22.377Z,35.95
2022-10-30T02:25:58.695Z,35.03
2022-10-30T02:28:27.527Z,34.03
2022-10-30T02:31:01.980Z,33.88
2022-10-30T02:33:30.603Z,33.45
2022-10-30T02:36:01.291Z,34.45
2022-10-30T02:38:31.649Z,33.58
2022-10-30T02:41:00.394Z,36.38
2022-10-30T02:43:31.118Z,34.13
2022-10-30T02:46:01.368Z,32.85
2022-10-30T02:48:31.470Z,35.10
2022-10-30T02:51:05.884Z,32.35
2022-10-30T02:53:35.236Z,33.45
2022-10-30T02:56:09.836Z,31.33
2022-10-30T02:58:38.615Z,31.63
2022-10-30T03:01:20.290Z,32.22
2022-10-30T03:03:49.650Z,32.03
2022-10-30T03:06:21.047Z,31.88
2022-10-30T03:08:49.376Z,29.90
2022-10-30T03:11:20.410Z,28.60
2022-10-30T03:13:51.781Z,30.55
2022-10-30T03:16:22.583Z,29.17
2022-10-30T03:18:53.343Z,29.05
2022-10-30T03:21:26.034Z,27.60
2022-10-30T03:24:00.868Z,28.05
2022-10-30T03:26:31.514Z,28.40
2022-10-30T03:28:59.971Z,28.38
2022-10-30T03:31:31.166Z,27.77
2022-10-30T03:33:59.336Z,29.02
2022-10-30T03:36:29.744Z,26.85
2022-10-30T03:38:59.122Z,27.63
2022-10-30T03:41:34.987Z,25.95
2022-10-30T03:44:04.190Z,26.70
2022-10-30T03:46:32.659Z,26.58
2022-10-30T03:49:01.139Z,26.77
2022-10-30T03:51:31.106Z,26.15
2022-10-30T03:54:00.238Z,25.90
2022-10-30T03:56:30.835Z,25.95
2022-10-30T03:59:03.272Z,25.15
2022-10-30T04:01:31.792Z,24.98
2022-10-30T04:04:01.292Z,24.45
2022-10-30T04:06:30.554Z,22.92
2022-10-30T04:09:06.598Z,21.35
2022-10-30T04:11:35.900Z,23.25
2022-10-30T04:14:09.817Z,21.52
2022-10-30T04:16:39.003Z,21.85
2022-10-30T04:19:10.250Z,20.83
2022-10-30T04:21:39.588Z,21.13
2022-10-30T04:24:10.319Z,21.88
2022-10-30T04:26:40.622Z,22.10
2022-10-30T04:29:10.887Z,21.85
2022-10-30T04:31:38.874Z,22.73
2022-10-30T04:34:07.061Z,21.83
2022-10-30T04:36:38.736Z,22.73
2022-10-30T04:39:08.816Z,21.92
2022-10-30T04:41:37.441Z,21.73
2022-10-30T04:44:06.279Z,21.35
2022-10-30T04:46:37.331Z,20.30
2022-10-30T04:49:07.964Z,22.30
2022-10-30T04:51:36.466Z,22.45
2022-10-30T04:54:05.017Z,23.00
2022-10-30T04:56:34.317Z,22.67
2022-10-30T04:59:05.456Z,21.15
2022-10-30T05:01:33.760Z,23.25
2022-10-30T05:04:05.268Z,23.48
2022-10-30T05:06:34.019Z,23.38
2022-10-30T05:09:02.727Z,22.45
2022-10-30T05:11:35.921Z,21.65
2022-10-30T05:14:04.034Z,21.13
2022-10-30T05:16:33.258Z,21.88
2022-10-30T05:19:01.533Z,21.50
2022-10-30T05:21:29.629Z,21.67
2022-10-30T05:23:57.989Z,22.17
2022-10-30T05:26:26.508Z,21.05
2022-10-30T05:28:55.858Z,21.83
2022-10-30T05:31:24.105Z,21.70
2022-10-30T05:33:52.233Z,21.40
2022-10-30T05:36:20.622Z,20.33
2022-10-30T05:38:48.531Z,20.90
2022-10-30T05:41:19.884Z,19.38
2022-10-30T05:43:50.903Z,21.60
2022-10-30T05:46:20.850Z,21.25
2022-10-30T05:48:50.820Z,21.80
2022-10-30T05:51:22.790Z,20.55
2022-10-30T05:53:52.517Z,21.08
2022-10-30T05:56:21.131Z,19.85
2022-10-30T05:58:49.950Z,19.45
2022-10-30T06:01:18.245Z,21.25
2022-10-30T06:03:48.057Z,20.35
2022-10-30T06:06:16.533Z,19.95
2022-10-30T06:08:47.767Z,20.20
2022-10-30T06:11:16.694Z,19.65
2022-10-30T06:13:48.619Z,20.63
2022-10-30T06:16:17.105Z,19.55
2022-10-30T06:18:45.576Z,19.60
2022-10-30T06:21:17.917Z,19.35
2022-10-30T06:26:19.213Z,19.10
2022-10-30T06:28:48.245Z,19.70
2022-10-30T06:31:16.774Z,20.65
2022-10-30T06:33:44.817Z,19.42
2022-10-30T06:36:13.092Z,17.95
2022-10-30T06:38:46.268Z,17.80
2022-10-30T06:41:29.098Z,18.63
2022-10-30T06:43:59.737Z,18.25
2022-10-30T06:46:32.453Z,16.98
2022-10-30T06:49:02.245Z,17.90
2022-10-30T06:51:30.801Z,17.42
2022-10-30T06:54:00.102Z,15.52
2022-10-30T06:56:28.845Z,15.82
2022-10-30T06:58:58.794Z,15.82
2022-10-30T07:01:28.518Z,14.68
2022-10-30T07:03:56.496Z,14.35
2022-10-30T07:06:25.769Z,15.95
2022-10-30T07:08:54.539Z,14.20
2022-10-30T07:11:24.454Z,14.57
2022-10-30T07:13:52.537Z,13.68
2022-10-30T07:16:20.956Z,14.43
2022-10-30T07:18:49.243Z,13.13
2022-10-30T07:21:17.633Z,13.55
2022-10-30T07:23:46.484Z,12.75
2022-10-30T07:26:14.875Z,13.05
2022-10-30T07:28:44.804Z,13.35
2022-10-30T07:31:28.911Z,12.82
2022-10-30T07:34:09.534Z,12.02
2022-10-30T07:36:38.718Z,12.25
2022-10-30T07:39:07.379Z,13.25
2022-10-30T07:41:35.890Z,13.00
2022-10-30T07:44:06.046Z,12.20
2022-10-30T07:46:41.832Z,11.48
2022-10-30T07:49:11.789Z,11.95
2022-10-30T07:51:40.294Z,12.10
2022-10-30T07:54:09.146Z,12.25
2022-10-30T07:56:38.174Z,11.82
2022-10-30T07:59:12.107Z,12.30
2022-10-30T08:01:42.082Z,10.20
2022-10-30T08:04:11.388Z,9.68
2022-10-30T08:06:40.482Z,9.57
2022-10-30T08:09:10.313Z,9.80
2022-10-30T08:11:39.126Z,9.48
2022-10-30T08:14:08.706Z,9.50
2022-10-30T08:16:36.837Z,8.07
2022-10-30T08:19:05.556Z,9.55
2022-10-30T08:21:35.727Z,8.35
2022-10-30T08:24:04.062Z,8.02
2022-10-30T08:26:36.179Z,8.32
2022-10-30T08:29:04.793Z,8.82
2022-10-30T08:31:34.727Z,7.80
2022-10-30T08:34:04.611Z,7.78
2022-10-30T08:36:35.231Z,8.82
2022-10-30T08:39:05.079Z,8.38
2022-10-30T08:41:33.621Z,7.82
2022-10-30T08:44:03.154Z,7.78
2022-10-30T08:46:34.084Z,6.68
2022-10-30T08:49:03.021Z,7.43
2022-10-30T08:51:34.125Z,7.20
2022-10-30T08:54:06.463Z,7.70
2022-10-30T08:56:36.604Z,7.75
2022-10-30T08:59:08.865Z,6.88
2022-10-30T09:01:39.127Z,7.75
2022-10-30T09:04:09.875Z,7.78
2022-10-30T09:06:40.596Z,6.70
2022-10-30T09:09:14.058Z,6.70
2022-10-30T09:11:44.859Z,7.72
2022-10-30T09:14:12.813Z,6.63
2022-10-30T09:16:43.077Z,6.00
2022-10-30T09:19:18.625Z,6.55
2022-10-30T09:21:47.360Z,6.50
2022-10-30T09:24:17.412Z,6.38
2022-10-30T09:26:45.674Z,7.10
2022-10-30T09:29:14.406Z,6.35
2022-10-30T09:31:44.079Z,6.55
2022-10-30T09:34:13.537Z,6.00
2022-10-30T09:36:43.920Z,7.05
2022-10-30T09:39:16.368Z,5.95
2022-10-30T09:42:06.004Z,6.60
2022-10-30T09:44:43.751Z,6.00
2022-10-30T09:47:23.785Z,6.32
2022-10-30T09:50:09.314Z,5.28
2022-10-30T09:52:44.113Z,6.57
2022-10-30T09:55:31.993Z,6.18
2022-10-30T09:58:12.152Z,5.60
2022-10-30T10:00:41.659Z,5.55
2022-10-30T10:03:30.092Z,6.03
2022-10-30T10:06:00.428Z,5.93
2022-10-30T10:08:31.810Z,5.53
2022-10-30T10:11:07.097Z,5.60
2022-10-30T10:13:38.714Z,5.78
2022-10-30T10:16:16.119Z,5.93
2022-10-30T10:18:50.224Z,5.35
2022-10-30T10:21:25.370Z,6.25
2022-10-30T10:24:00.217Z,6.05
2022-10-30T10:26:31.537Z,5.85
2022-10-30T10:29:42.214Z,5.13
2022-10-30T10:32:21.141Z,6.00
2022-10-30T10:35:21.629Z,5.50
2022-10-30T10:37:53.686Z,6.70
2022-10-30T10:40:36.651Z,5.55
2022-10-30T10:43:12.952Z,5.38
2022-10-30T10:45:48.368Z,5.70
2022-10-30T10:48:44.284Z,5.50
2022-10-30T10:51:17.092Z,5.97
2022-10-30T10:53:47.685Z,5.60
2022-10-30T10:56:20.646Z,4.97
2022-10-30T10:58:52.544Z,5.78
2022-10-30T11:01:24.823Z,5.90
2022-10-30T11:04:00.266Z,5.10
2022-10-30T11:06:34.578Z,5.50
2022-10-30T11:09:14.552Z,6.10
2022-10-30T11:11:44.139Z,5.10
2022-10-30T11:14:15.809Z,4.53
2022-10-30T11:17:05.262Z,5.30
2022-10-30T11:19:33.592Z,4.88
2022-10-30T11:22:16.006Z,5.13
2022-10-30T11:24:44.290Z,5.10
2022-10-30T11:27:22.185Z,4.78
2022-10-30T11:29:55.733Z,5.57
2022-10-30T11:32:28.062Z,5.40
2022-10-30T11:35:05.216Z,6.07
2022-10-30T11:37:38.113Z,5.32
2022-10-30T11:40:16.023Z,5.80
2022-10-30T11:42:47.505Z,5.35
2022-10-30T11:45:17.074Z,5.38
2022-10-30T11:47:46.177Z,4.88
2022-10-30T11:50:19.831Z,5.15
2022-10-30T11:52:52.020Z,5.53
2022-10-30T11:57:53.998Z,5.40
2022-10-30T12:00:24.091Z,6.45
2022-10-30T12:02:56.268Z,6.47
2022-10-30T12:05:43.573Z,5.72
2022-10-30T12:08:25.778Z,5.63
2022-10-30T12:11:01.639Z,6.03
2022-10-30T12:13:36.450Z,6.70
2022-10-30T12:16:15.065Z,5.55
2022-10-30T12:18:44.406Z,6.10
2022-10-30T12:21:18.573Z,5.53
2022-10-30T12:23:54.281Z,5.60
2022-10-30T12:26:23.825Z,5.18
2022-10-30T12:28:57.150Z,5.32
2022-10-30T12:31:33.367Z,5.32
2022-10-30T12:34:21.982Z,4.88
2022-10-30T12:36:54.064Z,5.88
2022-10-30T12:41:59.057Z,5.38
2022-10-30T12:44:29.667Z,4.93
2022-10-30T12:47:02.541Z,4.50
2022-10-30T12:49:38.151Z,5.45
2022-10-30T12:52:13.338Z,5.15
2022-10-30T12:55:00.094Z,5.90
2022-10-30T12:57:30.081Z,5.22
2022-10-30T13:00:03.602Z,5.32
2022-10-30T13:02:44.131Z,5.13
2022-10-30T13:05:31.397Z,5.23
2022-10-30T13:08:21.556Z,4.97
2022-10-30T13:10:55.595Z,5.57
2022-10-30T13:13:26.368Z,4.85
2022-10-30T13:16:00.611Z,5.35
2022-10-30T13:18:31.405Z,5.30
2022-10-30T13:21:22.033Z,4.90
2022-10-30T13:23:57.890Z,4.95
2022-10-30T13:26:40.444Z,4.50
2022-10-30T13:29:17.360Z,4.65
2022-10-30T13:31:55.250Z,5.90
2022-10-30T13:34:33.977Z,6.57
2022-10-30T13:37:08.172Z,4.78
2022-10-30T13:39:46.863Z,4.57
2022-10-30T13:42:26.310Z,5.47
2022-10-30T13:45:05.266Z,5.70
2022-10-30T13:47:42.728Z,5.20
2022-10-30T13:50:41.206Z,4.70
2022-10-30T13:53:14.978Z,4.72
2022-10-30T13:55:43.796Z,5.65
2022-10-30T13:58:21.428Z,5.93
2022-10-30T14:01:00.693Z,5.40
2022-10-30T14:03:54.227Z,5.18
2022-10-30T14:06:33.902Z,6.00
2022-10-30T14:09:08.189Z,5.20
2022-10-30T14:11:36.455Z,4.95
2022-10-30T14:14:23.451Z,5.97
2022-10-30T14:17:12.902Z,5.47
2022-10-30T14:20:19.636Z,5.40
2022-10-30T14:23:08.954Z,5.88
2022-10-30T14:25:37.726Z,5.28
2022-10-30T14:28:06.226Z,4.78
2022-10-30T14:30:38.628Z,5.53
2022-10-30T14:33:12.071Z,5.35
2022-10-30T14:35:43.027Z,5.35
2022-10-30T14:38:28.934Z,4.88
2022-10-30T14:41:12.851Z,5.35
2022-10-30T14:44:05.367Z,5.55
2022-10-30T14:46:43.506Z,6.47
2022-10-30T14:49:32.171Z,5.72
2022-10-30T14:52:10.044Z,5.93
2022-10-30T14:57:53.911Z,6.53
2022-10-30T15:00:42.587Z,5.22
2022-10-30T15:03:19.566Z,7.32
2022-10-30T15:05:52.556Z,5.28
2022-10-30T15:08:58.856Z,6.28
2022-10-30T15:11:36.013Z,6.40
2022-10-30T15:17:01.237Z,5.88
2022-10-30T15:19:34.993Z,6.55
2022-10-30T15:22:05.996Z,5.30
2022-10-30T15:24:35.019Z,72.70
2022-10-30T15:27:06.928Z,25.48
2022-10-30T15:29:37.950Z,14.55
2022-10-30T15:32:20.155Z,6.93
2022-10-30T15:34:59.990Z,6.35
2022-10-30T15:37:28.705Z,6.72
2022-10-30T15:40:16.724Z,6.82
2022-10-30T15:42:51.500Z,7.88
2022-10-30T15:45:23.242Z,8.10
2022-10-30T15:47:58.157Z,12.25
2022-10-30T15:50:32.454Z,8.98
2022-10-30T15:53:05.660Z,9.45
2022-10-30T15:55:41.426Z,11.40
2022-10-30T15:58:20.932Z,15.82
2022-10-30T16:00:59.141Z,11.07
2022-10-30T16:03:43.212Z,9.77
2022-10-30T16:06:17.960Z,10.18
2022-10-30T16:08:51.424Z,10.55
2022-10-30T16:11:21.744Z,11.32
2022-10-30T16:13:54.016Z,10.18
2022-10-30T16:16:28.847Z,9.27
2022-10-30T16:19:01.243Z,10.07
2022-10-30T16:21:32.108Z,10.30
2022-10-30T16:24:03.174Z,11.85
2022-10-30T16:26:37.174Z,9.68
2022-10-30T16:29:24.732Z,9.10
2022-10-30T16:31:53.603Z,9.88
2022-10-30T16:34:25.549Z,9.60
2022-10-30T16:36:56.546Z,8.27
2022-10-30T16:39:27.248Z,8.85
2022-10-30T16:41:58.882Z,10.00
2022-10-30T16:44:28.678Z,9.68
2022-10-30T16:46:59.784Z,10.43
2022-10-30T16:49:30.428Z,9.43
2022-10-30T16:52:05.318Z,9.23
2022-10-30T16:54:37.156Z,9.98
2022-10-30T16:57:13.304Z,10.07
2022-10-30T16:59:47.059Z,11.55
2022-10-30T17:02:20.548Z,11.05
2022-10-30T17:04:57.189Z,11.05
2022-10-30T17:07:28.192Z,12.98
2022-10-30T17:10:00.132Z,13.30
2022-10-30T17:12:32.259Z,12.43
2022-10-30T17:15:13.613Z,11.98
2022-10-30T17:17:43.692Z,11.68
2022-10-30T17:20:29.975Z,12.27
2022-10-30T17:23:19.058Z,10.95
2022-10-30T17:25:51.048Z,11.80
2022-10-30T17:28:27.129Z,10.10
2022-10-30T17:30:55.901Z,11.55
2022-10-30T17:33:36.664Z,11.15
2022-10-30T17:36:06.110Z,13.15
2022-10-30T17:38:38.727Z,11.68
2022-10-30T17:43:51.607Z,10.70
2022-10-30T17:46:22.456Z,11.32
2022-10-30T17:48:52.885Z,11.50
2022-10-30T17:51:24.136Z,10.77
2022-10-30T17:53:54.895Z,11.98
2022-10-30T17:56:29.732Z,11.73
2022-10-30T17:58:59.409Z,13.20
2022-10-30T18:01:33.994Z,15.90
2022-10-30T18:04:05.432Z,16.33
2022-10-30T18:06:33.431Z,16.00
2022-10-30T18:09:04.674Z,18.10
2022-10-30T18:11:33.882Z,19.40
2022-10-30T18:14:02.288Z,15.50
2022-10-30T18:16:32.754Z,16.42
2022-10-30T18:19:01.803Z,17.30
2022-10-30T18:21:41.927Z,17.42
2022-10-30T18:24:22.509Z,16.70
2022-10-30T18:26:53.908Z,16.52
2022-10-30T18:29:28.076Z,17.70
2022-10-30T18:31:56.855Z,18.55
2022-10-30T18:34:29.068Z,20.35
2022-10-30T18:36:58.080Z,19.08
2022-10-30T18:39:28.017Z,18.90
2022-10-30T18:41:57.597Z,19.17
2022-10-30T18:44:25.605Z,20.05
2022-10-30T18:47:02.514Z,20.58
2022-10-30T18:49:33.735Z,19.52
2022-10-30T18:52:03.967Z,19.88
2022-10-30T18:54:36.198Z,23.13
2022-10-30T18:57:05.440Z,21.55
2022-10-30T18:59:33.833Z,22.25
2022-10-30T19:02:04.181Z,23.92
2022-10-30T19:04:34.706Z,24.23
2022-10-30T19:07:06.526Z,24.63
2022-10-30T19:09:36.774Z,25.58
2022-10-30T19:12:07.628Z,22.33
2022-10-30T19:14:38.709Z,23.77
2022-10-30T19:17:08.938Z,23.52
2022-10-30T19:19:38.076Z,25.15
2022-10-30T19:22:07.039Z,26.95
2022-10-30T19:24:39.906Z,29.50
2022-10-30T19:27:07.949Z,29.63
2022-10-30T19:29:39.035Z,29.50
2022-10-30T19:32:07.728Z,34.35
2022-10-30T19:34:36.662Z,33.00
2022-10-30T19:37:04.920Z,32.33
2022-10-30T19:39:33.552Z,33.40
2022-10-30T19:42:05.472Z,33.78
2022-10-30T19:44:37.887Z,35.03
2022-10-30T19:47:08.226Z,34.08
2022-10-30T19:49:37.860Z,33.80
2022-10-30T19:52:07.718Z,32.20
2022-10-30T19:54:38.864Z,33.88
2022-10-30T19:57:25.119Z,33.72
2022-10-30T19:59:53.900Z,32.13
2022-10-30T20:02:21.867Z,33.45
2022-10-30T20:04:50.361Z,34.85
2022-10-30T20:07:20.832Z,32.50
2022-10-30T20:09:49.709Z,31.77
2022-10-30T20:12:19.512Z,31.83
2022-10-30T20:14:49.232Z,34.00
2022-10-30T20:17:17.436Z,32.63
2022-10-30T20:19:46.695Z,32.58
2022-10-30T20:22:14.775Z,34.67
2022-10-30T20:24:45.115Z,36.53
2022-10-30T20:27:14.170Z,33.80
2022-10-30T20:29:54.522Z,33.70
2022-10-30T20:32:22.763Z,35.65
2022-10-30T20:34:51.427Z,33.33
2022-10-30T20:37:19.450Z,33.92
2022-10-30T20:39:50.102Z,33.42
2022-10-30T20:42:26.128Z,36.70
2022-10-30T20:44:57.175Z,36.22
2022-10-30T20:47:25.490Z,36.25
2022-10-30T20:49:53.935Z,36.25
2022-10-30T20:52:23.038Z,38.63
2022-10-30T20:54:52.731Z,35.80
2022-10-30T20:57:22.574Z,36.47
2022-10-30T20:59:51.128Z,35.92
2022-10-30T21:02:23.268Z,36.35
2022-10-30T21:04:51.628Z,34.92
2022-10-30T21:07:21.717Z,34.22
2022-10-30T21:09:49.751Z,35.35
2022-10-30T21:12:18.296Z,33.65
2022-10-30T21:14:47.795Z,35.50
2022-10-30T21:17:17.740Z,34.08
2022-10-30T21:19:47.132Z,34.33
2022-10-30T21:22:16.531Z,35.10
2022-10-30T21:24:44.660Z,35.80
2022-10-30T21:27:13.832Z,35.35
2022-10-30T21:29:46.209Z,34.75
2022-10-30T21:32:15.191Z,33.60
2022-10-30T21:34:45.073Z,34.83
2022-10-30T21:37:14.946Z,36.50
2022-10-30T21:39:47.188Z,35.42
2022-10-30T21:42:15.292Z,34.70
2022-10-30T21:44:44.721Z,35.40
2022-10-30T21:47:14.707Z,35.13
2022-10-30T21:49:45.142Z,34.95
2022-10-30T21:52:18.108Z,34.35
2022-10-30T21:54:48.661Z,33.50
2022-10-30T21:57:16.950Z,32.90
2022-10-30T21:59:46.337Z,33.92
2022-10-30T22:02:15.369Z,36.22
2022-10-30T22:04:44.792Z,34.50
2022-10-30T22:07:16.509Z,34.20
2022-10-30T22:09:48.370Z,33.80
2022-10-30T22:12:16.337Z,33.65
2022-10-30T22:14:44.598Z,35.47
2022-10-30T22:17:13.972Z,33.80
2022-10-30T22:19:42.761Z,33.80
2022-10-30T22:22:13.172Z,34.25
2022-10-30T22:24:42.743Z,32.88
2022-10-30T22:27:11.475Z,32.08
2022-10-30T22:29:40.488Z,32.35
2022-10-30T22:32:08.762Z,30.25
2022-10-30T22:34:38.187Z,31.70
2022-10-30T22:37:06.374Z,32.58
2022-10-30T22:39:34.419Z,31.02
2022-10-30T22:42:03.929Z,30.20
2022-10-30T22:44:32.146Z,32.75
2022-10-30T22:47:01.633Z,29.38
2022-10-30T22:49:34.196Z,31.15
2022-10-30T22:52:03.414Z,32.60
2022-10-30T22:54:32.704Z,32.08
2022-10-30T22:57:01.130Z,32.88
2022-10-30T22:59:32.941Z,30.20
2022-10-30T23:02:04.235Z,30.52
2022-10-30T23:07:03.573Z,32.22
2022-10-30T23:09:31.687Z,33.08
2022-10-30T23:12:02.421Z,31.15
2022-10-30T23:14:33.596Z,33.55
2022-10-30T23:17:05.568Z,31.63
2022-10-30T23:19:34.130Z,32.08
2022-10-30T23:22:06.150Z,31.45
2022-10-30T23:24:35.401Z,31.83
2022-10-30T23:27:09.755Z,32.22
2022-10-30T23:29:40.974Z,32.15
2022-10-30T23:32:09.186Z,31.70
2022-10-30T23:34:37.638Z,31.38
2022-10-30T23:37:06.466Z,32.00
2022-10-30T23:39:35.061Z,32.05
2022-10-30T23:42:03.021Z,33.80
2022-10-30T23:44:32.240Z,33.45
2022-10-30T23:47:04.730Z,33.42
2022-10-30T23:49:34.176Z,31.88
2022-10-30T23:52:02.664Z,32.00
2022-10-30T23:54:32.121Z,31.27
2022-10-30T23:57:00.118Z,32.30
2022-10-30T23:59:28.194Z,31.75
